createdAt,value
2019-06-01T00:00:11.657Z,19.47
2019-06-01T00:02:34.148Z,21.00
2019-06-01T00:05:03.223Z,21.67
2019-06-01T00:07:32.255Z,20.40
2019-06-01T00:10:01.327Z,24.07
2019-06-01T00:12:30.252Z,23.57
2019-06-01T00:14:59.633Z,23.30
2019-06-01T00:17:28.602Z,21.40
2019-06-01T00:19:57.874Z,22.00
2019-06-01T00:22:26.929Z,20.47
2019-06-01T00:24:55.942Z,21.27
2019-06-01T00:27:25.079Z,18.17
2019-06-01T00:29:54.019Z,21.10
2019-06-01T00:32:23.442Z,20.03
2019-06-01T00:34:52.758Z,20.13
2019-06-01T00:37:21.811Z,21.50
2019-06-01T00:39:51.932Z,19.27
2019-06-01T00:42:21.046Z,22.13
2019-06-01T00:44:50.479Z,19.90
2019-06-01T00:47:19.512Z,23.13
2019-06-01T00:49:48.880Z,22.07
2019-06-01T00:52:17.965Z,21.73
2019-06-01T00:54:47.414Z,19.83
2019-06-01T00:57:16.433Z,22.93
2019-06-01T00:59:45.945Z,23.43
2019-06-01T01:02:14.975Z,23.50
2019-06-01T01:04:44.332Z,20.63
2019-06-01T01:07:13.425Z,19.90
2019-06-01T01:09:42.607Z,18.47
2019-06-01T01:12:11.618Z,21.27
2019-06-01T01:14:41.217Z,22.20
2019-06-01T01:17:11.198Z,23.73
2019-06-01T01:19:41.259Z,20.30
2019-06-01T01:22:11.253Z,25.52
2019-06-01T01:24:41.416Z,25.15
2019-06-01T01:27:11.277Z,23.40
2019-06-01T01:29:41.276Z,24.40
2019-06-01T01:32:11.340Z,26.15
2019-06-01T01:34:41.364Z,25.75
2019-06-01T01:37:11.351Z,30.00
2019-06-01T01:39:41.721Z,23.10
2019-06-01T01:42:11.901Z,23.67
2019-06-01T01:44:41.447Z,21.52
2019-06-01T01:47:14.323Z,25.02
2019-06-01T01:49:42.157Z,21.40
2019-06-01T01:52:11.478Z,25.32
2019-06-01T01:54:41.485Z,25.15
2019-06-01T01:57:11.516Z,26.00
2019-06-01T01:59:41.506Z,24.85
2019-06-01T02:02:11.507Z,24.12
2019-06-01T02:04:41.534Z,28.25
2019-06-01T02:07:11.421Z,27.70
2019-06-01T02:09:40.430Z,26.13
2019-06-01T02:12:09.863Z,25.33
2019-06-01T02:14:38.878Z,27.03
2019-06-01T02:17:07.923Z,30.37
2019-06-01T02:19:36.956Z,31.27
2019-06-01T02:22:06.089Z,30.97
2019-06-01T02:24:35.101Z,28.07
2019-06-01T02:27:04.419Z,32.40
2019-06-01T02:29:33.462Z,28.43
2019-06-01T02:32:04.745Z,29.60
2019-06-01T02:34:33.187Z,31.10
2019-06-01T02:37:02.429Z,35.97
2019-06-01T02:39:31.869Z,36.10
2019-06-01T02:42:01.330Z,32.30
2019-06-01T02:44:31.650Z,32.77
2019-06-01T02:47:01.540Z,31.50
2019-06-01T02:49:30.696Z,30.07
2019-06-01T02:51:59.719Z,33.43
2019-06-01T02:54:28.819Z,38.63
2019-06-01T02:56:57.941Z,29.80
2019-06-01T02:59:26.965Z,37.37
2019-06-01T03:02:00.383Z,30.83
2019-06-01T03:04:27.426Z,33.13
2019-06-01T03:06:57.306Z,32.30
2019-06-01T03:09:28.332Z,31.93
2019-06-01T03:12:00.758Z,34.27
2019-06-01T03:14:31.730Z,29.83
2019-06-01T03:17:01.901Z,25.77
2019-06-01T03:19:33.319Z,38.07
2019-06-01T03:22:05.640Z,27.77
2019-06-01T03:24:38.185Z,28.30
2019-06-01T03:27:08.145Z,26.53
2019-06-01T03:29:41.858Z,30.97
2019-06-01T03:32:29.446Z,27.03
2019-06-01T03:34:42.191Z,32.80
2019-06-01T03:37:13.372Z,33.55
2019-06-01T03:39:42.597Z,31.10
2019-06-01T03:42:12.603Z,31.30
2019-06-01T03:44:42.235Z,30.57
2019-06-01T03:47:12.832Z,27.62
2019-06-01T03:49:42.283Z,32.95
2019-06-01T03:52:11.366Z,27.60
2019-06-01T03:54:40.377Z,28.63
2019-06-01T03:57:09.424Z,27.60
2019-06-01T03:59:38.449Z,24.53
2019-06-01T04:02:09.111Z,23.50
2019-06-01T04:04:38.177Z,24.60
2019-06-01T04:07:08.279Z,24.67
2019-06-01T04:09:37.280Z,24.40
2019-06-01T04:12:07.571Z,23.97
2019-06-01T04:14:36.726Z,25.37
2019-06-01T04:17:06.158Z,22.20
2019-06-01T04:19:35.241Z,24.03
2019-06-01T04:22:04.274Z,22.87
2019-06-01T04:24:33.230Z,22.70
2019-06-01T04:27:04.036Z,22.30
2019-06-01T04:29:33.228Z,23.17
2019-06-01T04:32:02.507Z,24.37
2019-06-01T04:34:31.597Z,23.07
2019-06-01T04:37:00.658Z,23.47
2019-06-01T04:39:29.692Z,23.03
2019-06-01T04:41:58.631Z,23.70
2019-06-01T04:44:27.674Z,25.47
2019-06-01T04:46:56.688Z,27.73
2019-06-01T04:49:26.083Z,22.30
2019-06-01T04:51:55.125Z,21.90
2019-06-01T04:54:24.089Z,22.40
2019-06-01T04:56:53.109Z,23.90
2019-06-01T04:59:22.146Z,23.50
2019-06-01T05:01:51.656Z,23.47
2019-06-01T05:04:20.695Z,24.30
2019-06-01T05:06:49.714Z,27.30
2019-06-01T05:09:18.774Z,25.93
2019-06-01T05:11:47.769Z,24.67
2019-06-01T05:14:17.135Z,25.07
2019-06-01T05:16:46.322Z,25.00
2019-06-01T05:19:16.618Z,23.23
2019-06-01T05:21:45.852Z,24.77
2019-06-01T05:24:14.886Z,22.63
2019-06-01T05:26:43.922Z,22.83
2019-06-01T05:29:13.559Z,23.00
2019-06-01T05:31:42.994Z,22.45
2019-06-01T05:34:13.818Z,22.97
2019-06-01T05:36:43.113Z,21.80
2019-06-01T05:39:14.412Z,22.07
2019-06-01T05:41:43.487Z,20.17
2019-06-01T05:44:13.095Z,22.60
2019-06-01T05:46:43.204Z,19.20
2019-06-01T05:49:13.506Z,20.50
2019-06-01T05:51:43.626Z,18.90
2019-06-01T05:54:14.537Z,19.43
2019-06-01T05:56:43.610Z,21.57
2019-06-01T05:59:13.919Z,16.95
2019-06-01T06:01:43.282Z,17.52
2019-06-01T06:04:13.461Z,18.10
2019-06-01T06:06:43.340Z,18.10
2019-06-01T06:09:13.410Z,18.20
2019-06-01T06:11:43.467Z,16.20
2019-06-01T06:14:13.470Z,17.53
2019-06-01T06:16:43.508Z,17.85
2019-06-01T06:19:13.947Z,16.37
2019-06-01T06:21:44.407Z,15.73
2019-06-01T06:24:14.303Z,18.97
2019-06-01T06:26:43.576Z,16.83
2019-06-01T06:29:14.714Z,16.40
2019-06-01T06:31:43.795Z,17.00
2019-06-01T06:34:13.608Z,17.32
2019-06-01T06:36:43.546Z,17.43
2019-06-01T06:39:13.643Z,18.93
2019-06-01T06:41:43.675Z,20.50
2019-06-01T06:44:14.390Z,18.47
2019-06-01T06:46:43.696Z,19.13
2019-06-01T06:49:14.923Z,19.23
2019-06-01T06:51:44.029Z,18.00
2019-06-01T06:54:14.683Z,19.12
2019-06-01T06:56:44.497Z,19.27
2019-06-01T06:59:13.791Z,17.60
2019-06-01T07:01:43.791Z,19.17
2019-06-01T07:04:13.862Z,19.95
2019-06-01T07:06:43.896Z,16.50
2019-06-01T07:09:13.865Z,17.27
2019-06-01T07:11:44.185Z,17.17
2019-06-01T07:14:13.938Z,16.97
2019-06-01T07:16:43.939Z,18.70
2019-06-01T07:19:13.928Z,17.70
2019-06-01T07:21:43.977Z,15.87
2019-06-01T07:24:13.881Z,15.97
2019-06-01T07:26:44.283Z,15.73
2019-06-01T07:29:14.310Z,17.27
2019-06-01T07:31:44.003Z,14.90
2019-06-01T07:34:29.580Z,15.37
2019-06-01T07:36:44.819Z,14.80
2019-06-01T07:39:14.054Z,15.30
2019-06-01T07:41:44.628Z,13.47
2019-06-01T07:44:14.094Z,14.30
2019-06-01T07:46:44.138Z,15.90
2019-06-01T07:49:14.556Z,15.25
2019-06-01T07:51:44.245Z,15.43
2019-06-01T07:54:14.232Z,14.87
2019-06-01T07:56:44.105Z,15.40
2019-06-01T07:59:13.084Z,15.37
2019-06-01T08:01:42.108Z,14.40
2019-06-01T08:04:11.217Z,13.83
2019-06-01T08:06:45.879Z,13.70
2019-06-01T08:09:10.970Z,15.40
2019-06-01T08:11:40.019Z,13.23
2019-06-01T08:14:09.090Z,14.80
2019-06-01T08:16:38.124Z,13.50
2019-06-01T08:19:07.168Z,14.30
2019-06-01T08:21:36.206Z,13.67
2019-06-01T08:24:05.335Z,14.60
2019-06-01T08:26:34.367Z,14.43
2019-06-01T08:29:03.404Z,14.87
2019-06-01T08:31:33.676Z,15.33
2019-06-01T08:34:03.262Z,14.60
2019-06-01T08:36:33.821Z,13.93
2019-06-01T08:39:02.982Z,15.37
2019-06-01T08:41:32.009Z,15.53
2019-06-01T08:44:01.307Z,13.87
2019-06-01T08:46:31.696Z,14.97
2019-06-01T08:49:00.802Z,14.97
2019-06-01T08:51:29.991Z,16.20
2019-06-01T08:53:59.032Z,16.50
2019-06-01T08:56:28.269Z,15.70
2019-06-01T08:58:57.391Z,15.73
2019-06-01T09:01:26.732Z,16.10
2019-06-01T09:03:55.772Z,15.83
2019-06-01T09:06:24.886Z,15.37
2019-06-01T09:08:53.842Z,15.33
2019-06-01T09:11:22.855Z,14.83
2019-06-01T09:13:52.494Z,18.10
2019-06-01T09:16:21.571Z,15.13
2019-06-01T09:18:50.609Z,15.83
2019-06-01T09:21:19.670Z,16.63
2019-06-01T09:23:48.710Z,14.00
2019-06-01T09:26:18.079Z,14.90
2019-06-01T09:28:47.120Z,14.43
2019-06-01T09:31:16.134Z,12.80
2019-06-01T09:33:45.172Z,13.47
2019-06-01T09:36:15.095Z,13.77
2019-06-01T09:38:45.085Z,15.50
2019-06-01T09:41:15.180Z,15.07
2019-06-01T09:43:45.124Z,15.20
2019-06-01T09:46:15.157Z,15.27
2019-06-01T09:48:45.515Z,14.57
2019-06-01T09:51:15.188Z,13.87
2019-06-01T09:53:45.179Z,13.63
2019-06-01T09:56:15.227Z,14.50
2019-06-01T09:58:45.224Z,15.00
2019-06-01T10:01:14.266Z,14.30
2019-06-01T10:03:43.340Z,13.53
2019-06-01T10:06:14.170Z,13.97
2019-06-01T10:08:43.119Z,14.13
2019-06-01T10:11:12.152Z,13.30
2019-06-01T10:13:42.615Z,13.00
2019-06-01T10:16:11.684Z,14.37
2019-06-01T10:18:40.710Z,14.53
2019-06-01T10:21:09.762Z,13.53
2019-06-01T10:23:38.776Z,14.30
2019-06-01T10:26:08.176Z,15.73
2019-06-01T10:28:37.827Z,15.27
2019-06-01T10:31:06.893Z,14.37
2019-06-01T10:33:37.363Z,13.40
2019-06-01T10:36:19.904Z,15.37
2019-06-01T10:38:37.712Z,14.40
2019-06-01T10:41:06.756Z,15.30
2019-06-01T10:43:36.135Z,15.53
2019-06-01T10:46:05.294Z,16.30
2019-06-01T10:48:34.549Z,11.73
2019-06-01T10:51:03.855Z,11.63
2019-06-01T10:53:34.645Z,12.80
2019-06-01T10:56:03.910Z,11.80
2019-06-01T10:58:34.560Z,12.40
2019-06-01T11:01:03.743Z,13.73
2019-06-01T11:03:33.075Z,13.00
2019-06-01T11:06:02.014Z,14.53
2019-06-01T11:08:31.087Z,13.60
2019-06-01T11:11:00.130Z,12.27
2019-06-01T11:13:29.172Z,13.03
2019-06-01T11:15:58.144Z,12.00
2019-06-01T11:18:27.185Z,12.03
2019-06-01T11:20:56.286Z,15.03
2019-06-01T11:23:25.341Z,15.10
2019-06-01T11:25:54.391Z,13.53
2019-06-01T11:28:23.459Z,14.90
2019-06-01T11:30:52.496Z,15.87
2019-06-01T11:33:21.536Z,13.43
2019-06-01T11:35:50.603Z,11.47
2019-06-01T11:38:19.528Z,12.40
2019-06-01T11:40:48.550Z,12.10
2019-06-01T11:43:17.906Z,15.83
2019-06-01T11:45:47.309Z,15.97
2019-06-01T11:48:16.345Z,14.00
2019-06-01T11:50:46.209Z,12.00
2019-06-01T11:53:16.269Z,11.20
2019-06-01T11:55:46.280Z,10.97
2019-06-01T11:58:16.272Z,10.27
2019-06-01T12:00:46.299Z,11.23
2019-06-01T12:03:16.336Z,10.43
2019-06-01T12:05:46.511Z,12.37
2019-06-01T12:08:16.344Z,10.00
2019-06-01T12:10:47.783Z,11.90
2019-06-01T12:13:17.301Z,11.17
2019-06-01T12:15:46.453Z,12.60
2019-06-01T12:18:16.410Z,17.37
2019-06-01T12:20:47.332Z,18.03
2019-06-01T12:23:16.452Z,22.17
2019-06-01T12:25:46.699Z,13.30
2019-06-01T12:28:16.590Z,8.70
2019-06-01T12:30:46.560Z,7.50
2019-06-01T12:33:16.894Z,12.33
2019-06-01T12:35:47.956Z,9.20
2019-06-01T12:38:17.240Z,7.73
2019-06-01T12:40:47.418Z,9.67
2019-06-01T12:43:16.720Z,10.53
2019-06-01T12:45:47.813Z,10.07
2019-06-01T12:48:17.337Z,12.90
2019-06-01T12:50:49.113Z,10.70
2019-06-01T12:53:17.460Z,10.90
2019-06-01T12:55:46.823Z,9.97
2019-06-01T12:58:16.809Z,10.87
2019-06-01T13:00:46.802Z,10.87
2019-06-01T13:03:16.798Z,8.83
2019-06-01T13:05:47.747Z,8.87
2019-06-01T13:08:16.889Z,13.17
2019-06-01T13:10:47.196Z,9.10
2019-06-01T13:13:16.803Z,9.23
2019-06-01T13:15:47.381Z,7.80
2019-06-01T13:18:16.929Z,8.17
2019-06-01T13:20:47.687Z,10.63
2019-06-01T13:23:16.976Z,8.30
2019-06-01T13:25:47.646Z,7.23
2019-06-01T13:28:16.996Z,8.57
2019-06-01T13:30:47.814Z,8.67
2019-06-01T13:33:17.713Z,8.10
2019-06-01T13:35:47.038Z,7.37
2019-06-01T13:38:17.045Z,8.83
2019-06-01T13:40:47.197Z,8.40
2019-06-01T13:43:17.108Z,7.50
2019-06-01T13:45:47.250Z,7.03
2019-06-01T13:48:17.221Z,6.60
2019-06-01T13:50:47.825Z,5.90
2019-06-01T13:53:17.259Z,7.70
2019-06-01T13:55:48.165Z,7.93
2019-06-01T13:58:17.392Z,6.50
2019-06-01T14:00:48.383Z,6.10
2019-06-01T14:03:17.498Z,6.30
2019-06-01T14:05:47.239Z,6.63
2019-06-01T14:08:28.509Z,6.03
2019-06-01T14:10:47.357Z,6.07
2019-06-01T14:13:17.292Z,6.47
2019-06-01T14:15:47.340Z,5.77
2019-06-01T14:18:17.438Z,5.70
2019-06-01T14:20:47.617Z,5.03
2019-06-01T14:23:17.507Z,6.30
2019-06-01T14:25:48.016Z,5.87
2019-06-01T14:28:17.097Z,5.90
2019-06-01T14:30:46.220Z,5.30
2019-06-01T14:33:15.139Z,6.40
2019-06-01T14:35:44.211Z,5.67
2019-06-01T14:38:13.258Z,5.65
2019-06-01T14:40:42.586Z,5.93
2019-06-01T14:43:11.640Z,4.90
2019-06-01T14:45:40.686Z,5.57
2019-06-01T14:48:09.739Z,5.97
2019-06-01T14:50:38.723Z,5.80
2019-06-01T14:53:07.745Z,6.03
2019-06-01T14:55:36.782Z,5.73
2019-06-01T14:58:05.833Z,6.57
2019-06-01T15:00:34.805Z,6.40
2019-06-01T15:03:03.842Z,7.70
2019-06-01T15:05:32.882Z,8.23
2019-06-01T15:08:01.961Z,7.57
2019-06-01T15:10:30.985Z,6.30
2019-06-01T15:13:03.057Z,5.80
2019-06-01T15:15:30.769Z,6.53
2019-06-01T15:18:04.714Z,6.67
2019-06-01T15:20:30.906Z,6.53
2019-06-01T15:22:59.922Z,6.47
2019-06-01T15:25:28.946Z,6.93
2019-06-01T15:27:58.874Z,6.37
2019-06-01T15:30:28.030Z,5.80
2019-06-01T15:32:58.197Z,8.70
2019-06-01T15:35:27.379Z,6.20
2019-06-01T15:38:00.107Z,5.90
2019-06-01T15:40:27.158Z,6.10
2019-06-01T15:42:57.341Z,5.67
2019-06-01T15:45:26.493Z,6.00
2019-06-01T15:47:55.599Z,5.40
2019-06-01T15:50:24.648Z,5.03
2019-06-01T15:52:54.859Z,5.60
2019-06-01T15:55:24.093Z,6.53
2019-06-01T15:57:54.251Z,6.00
2019-06-01T16:00:23.527Z,7.00
2019-06-01T16:02:52.873Z,6.03
2019-06-01T16:05:21.868Z,6.30
2019-06-01T16:07:50.905Z,6.13
2019-06-01T16:10:19.933Z,6.93
2019-06-01T16:12:48.989Z,6.40
2019-06-01T16:15:18.374Z,5.90
2019-06-01T16:17:47.367Z,5.23
2019-06-01T16:20:17.499Z,5.28
2019-06-01T16:22:46.541Z,5.30
2019-06-01T16:25:15.561Z,5.37
2019-06-01T16:27:44.932Z,4.77
2019-06-01T16:30:14.303Z,5.15
2019-06-01T16:32:43.320Z,4.55
2019-06-01T16:35:12.479Z,5.10
2019-06-01T16:37:41.536Z,4.70
2019-06-01T16:40:11.380Z,5.00
2019-06-01T16:42:40.470Z,6.40
2019-06-01T16:45:09.848Z,5.03
2019-06-01T16:47:38.895Z,8.07
2019-06-01T16:50:09.184Z,4.63
2019-06-01T16:52:38.786Z,5.03
2019-06-01T16:55:09.240Z,5.45
2019-06-01T16:57:38.708Z,4.80
2019-06-01T17:00:09.478Z,4.80
2019-06-01T17:02:38.761Z,4.55
2019-06-01T17:05:09.865Z,5.08
2019-06-01T17:07:38.910Z,5.00
2019-06-01T17:10:25.030Z,4.62
2019-06-01T17:12:43.631Z,4.93
2019-06-01T17:15:13.853Z,5.80
2019-06-01T17:17:42.979Z,6.03
2019-06-01T17:20:47.454Z,5.23
2019-06-01T17:23:27.358Z,5.87
2019-06-01T17:25:47.576Z,5.87
2019-06-01T17:28:16.645Z,8.17
2019-06-01T17:30:45.786Z,5.00
2019-06-01T17:33:14.830Z,5.60
2019-06-01T17:35:43.845Z,6.07
2019-06-01T17:38:13.343Z,4.90
2019-06-01T17:40:43.348Z,5.07
2019-06-01T17:43:13.181Z,5.27
2019-06-01T17:45:42.815Z,6.00
2019-06-01T17:48:25.194Z,5.30
2019-06-01T17:50:42.610Z,6.80
2019-06-01T17:53:12.893Z,5.03
2019-06-01T17:55:42.149Z,5.90
2019-06-01T17:58:12.417Z,8.53
2019-06-01T18:00:42.029Z,5.93
2019-06-01T18:03:12.085Z,5.93
2019-06-01T18:05:41.268Z,5.20
2019-06-01T18:08:10.686Z,6.37
2019-06-01T18:10:53.265Z,5.57
2019-06-01T18:13:12.728Z,5.50
2019-06-01T18:15:41.936Z,5.37
2019-06-01T18:18:11.068Z,5.37
2019-06-01T18:20:40.332Z,5.67
2019-06-01T18:23:11.244Z,5.57
2019-06-01T18:25:40.136Z,6.00
2019-06-01T18:28:15.036Z,5.23
2019-06-01T18:30:40.179Z,5.93
2019-06-01T18:33:09.598Z,5.57
2019-06-01T18:35:39.084Z,5.40
2019-06-01T18:38:09.835Z,6.15
2019-06-01T18:40:39.098Z,5.60
2019-06-01T18:43:12.373Z,6.17
2019-06-01T18:45:41.397Z,5.27
2019-06-01T18:48:10.535Z,5.13
2019-06-01T18:50:39.535Z,6.07
2019-06-01T18:53:10.126Z,5.65
2019-06-01T18:55:39.229Z,5.57
2019-06-01T18:58:10.306Z,5.53
2019-06-01T19:00:40.270Z,8.00
2019-06-01T19:03:11.238Z,5.80
2019-06-01T19:05:40.137Z,7.53
2019-06-01T19:08:09.541Z,7.47
2019-06-01T19:10:39.579Z,6.37
2019-06-01T19:13:09.570Z,7.87
2019-06-01T19:15:39.581Z,6.00
2019-06-01T19:18:10.484Z,6.20
2019-06-01T19:20:39.592Z,11.07
2019-06-01T19:23:10.672Z,7.53
2019-06-01T19:25:39.827Z,6.80
2019-06-01T19:28:10.900Z,6.30
2019-06-01T19:30:41.661Z,6.60
2019-06-01T19:33:14.266Z,6.50
2019-06-01T19:35:41.779Z,6.80
2019-06-01T19:38:11.391Z,6.57
2019-06-01T19:40:41.440Z,9.97
2019-06-01T19:43:11.518Z,11.63
2019-06-01T19:45:40.648Z,6.80
2019-06-01T19:48:10.250Z,7.80
2019-06-01T19:50:39.524Z,7.83
2019-06-01T19:53:10.560Z,7.73
2019-06-01T19:55:39.907Z,6.90
2019-06-01T19:58:10.129Z,5.72
2019-06-01T20:00:39.599Z,6.03
2019-06-01T20:03:10.281Z,6.40
2019-06-01T20:05:39.578Z,7.30
2019-06-01T20:08:09.938Z,6.85
2019-06-01T20:10:39.729Z,7.50
2019-06-01T20:13:10.923Z,5.80
2019-06-01T20:15:39.990Z,5.73
2019-06-01T20:18:10.665Z,6.37
2019-06-01T20:20:39.775Z,7.80
2019-06-01T20:23:11.149Z,8.93
2019-06-01T20:25:40.349Z,6.10
2019-06-01T20:28:09.766Z,6.87
2019-06-01T20:30:39.749Z,6.03
2019-06-01T20:33:09.773Z,5.92
2019-06-01T20:35:39.798Z,8.00
2019-06-01T20:38:09.904Z,7.53
2019-06-01T20:40:39.768Z,7.03
2019-06-01T20:43:09.835Z,6.70
2019-06-01T20:45:39.887Z,9.48
2019-06-01T20:48:09.924Z,9.63
2019-06-01T20:50:39.961Z,7.03
2019-06-01T20:53:09.952Z,7.62
2019-06-01T20:55:39.924Z,7.25
2019-06-01T20:58:09.999Z,7.53
2019-06-01T21:00:39.960Z,8.20
2019-06-01T21:03:10.033Z,8.43
2019-06-01T21:05:40.324Z,8.30
2019-06-01T21:08:10.027Z,8.33
2019-06-01T21:10:40.060Z,7.37
2019-06-01T21:13:10.128Z,8.63
2019-06-01T21:15:40.125Z,9.28
2019-06-01T21:18:10.142Z,8.83
2019-06-01T21:20:40.112Z,8.73
2019-06-01T21:23:10.053Z,9.53
2019-06-01T21:25:40.045Z,10.68
2019-06-01T21:28:14.023Z,8.53
2019-06-01T21:30:40.173Z,8.78
2019-06-01T21:33:10.522Z,10.18
2019-06-01T21:35:40.231Z,9.90
2019-06-01T21:38:10.147Z,9.10
2019-06-01T21:40:40.150Z,9.00
2019-06-01T21:43:23.478Z,9.80
2019-06-01T21:45:40.185Z,8.30
2019-06-01T21:48:10.242Z,12.75
2019-06-01T21:50:39.235Z,13.63
2019-06-01T21:53:08.249Z,11.97
2019-06-01T21:55:37.296Z,11.23
2019-06-01T21:58:06.321Z,9.70
2019-06-01T22:00:37.686Z,11.57
2019-06-01T22:03:07.641Z,10.40
2019-06-01T22:05:36.818Z,11.23
2019-06-01T22:08:05.867Z,11.27
2019-06-01T22:10:34.882Z,12.13
2019-06-01T22:13:17.497Z,13.97
2019-06-01T22:15:34.661Z,11.60
2019-06-01T22:18:03.807Z,18.23
2019-06-01T22:20:32.860Z,11.27
2019-06-01T22:23:01.969Z,10.30
2019-06-01T22:25:30.970Z,9.57
2019-06-01T22:28:00.013Z,13.20
2019-06-01T22:30:29.066Z,10.17
2019-06-01T22:32:58.711Z,11.67
2019-06-01T22:35:28.807Z,15.23
2019-06-01T22:37:57.904Z,11.40
2019-06-01T22:40:27.299Z,12.77
2019-06-01T22:42:56.672Z,16.23
2019-06-01T22:45:27.064Z,13.87
2019-06-01T22:47:56.305Z,17.20
2019-06-01T22:50:25.318Z,15.27
2019-06-01T22:52:54.363Z,14.63
2019-06-01T22:55:24.322Z,17.10
2019-06-01T22:57:53.616Z,13.33
2019-06-01T23:00:23.633Z,15.30
2019-06-01T23:02:52.752Z,13.53
2019-06-01T23:05:22.973Z,14.43
2019-06-01T23:07:52.196Z,13.00
2019-06-01T23:10:26.352Z,12.13
2019-06-01T23:12:51.973Z,12.70
2019-06-01T23:15:21.428Z,12.00
2019-06-01T23:17:50.912Z,13.23
2019-06-01T23:20:20.159Z,12.77
2019-06-01T23:22:49.100Z,14.13
2019-06-01T23:25:18.127Z,14.70
2019-06-01T23:27:47.160Z,12.67
2019-06-01T23:30:16.274Z,13.67
2019-06-01T23:32:45.287Z,14.50
2019-06-01T23:35:14.421Z,16.17
2019-06-01T23:37:43.454Z,14.47
2019-06-01T23:40:12.576Z,15.33
2019-06-01T23:42:41.624Z,15.53
2019-06-01T23:45:11.011Z,14.35
2019-06-01T23:47:40.423Z,16.60
2019-06-01T23:50:09.563Z,14.27
2019-06-01T23:52:38.893Z,15.37
2019-06-01T23:55:07.937Z,14.67
2019-06-01T23:57:36.983Z,14.63
